createdAt,value
2018-12-24T00:05:04.686Z,8.9
2018-12-24T00:10:27.400Z,10
2018-12-24T00:15:50.110Z,12.4
2018-12-24T00:21:12.896Z,12.9
2018-12-24T00:26:35.628Z,12.5
2018-12-24T00:31:58.487Z,13.8
2018-12-24T00:37:21.147Z,11.4
2018-12-24T00:42:44.826Z,11.7
2018-12-24T00:48:09.604Z,10.4
2018-12-24T00:53:31.211Z,9.5
2018-12-24T00:58:54.136Z,7.4
2018-12-24T01:04:16.881Z,10.1
2018-12-24T01:09:39.615Z,12.2
2018-12-24T01:15:02.832Z,12
2018-12-24T01:20:35.013Z,13.1
2018-12-24T01:25:57.808Z,15.4
2018-12-24T01:31:20.715Z,15.3
2018-12-24T01:36:53.335Z,15.3
2018-12-24T01:42:33.181Z,16
2018-12-24T01:47:48.283Z,15.9
2018-12-24T01:53:20.539Z,15.7
2018-12-24T01:58:43.213Z,14.7
2018-12-24T02:04:06.060Z,14
2018-12-24T02:09:28.852Z,14.6
2018-12-24T02:14:52.365Z,14.2
2018-12-24T02:20:15.854Z,13.7
2018-12-24T02:25:38.538Z,12
2018-12-24T02:31:01.392Z,12.4
2018-12-24T02:36:24.116Z,11.8
2018-12-24T02:41:46.847Z,8.7
2018-12-24T02:47:10.484Z,8
2018-12-24T02:52:35.024Z,7.6
2018-12-24T02:57:57.853Z,8.5
2018-12-24T03:03:20.755Z,8.1
2018-12-24T03:08:52.805Z,8.2
2018-12-24T03:14:24.709Z,8.5
2018-12-24T03:19:47.422Z,8
2018-12-24T03:25:10.165Z,7.4
2018-12-24T03:30:32.862Z,7.1
2018-12-24T03:35:55.613Z,7.6
2018-12-24T03:41:18.396Z,7.9
2018-12-24T03:46:42.093Z,7.8
2018-12-24T03:52:14.899Z,7.6
2018-12-24T03:57:47.510Z,7.1
2018-12-24T04:03:10.412Z,7
2018-12-24T04:08:33.183Z,6.7
2018-12-24T04:13:56.355Z,6.1
2018-12-24T04:19:28.203Z,5.4
2018-12-24T04:24:51.824Z,5.2
2018-12-24T04:30:14.628Z,5.4
2018-12-24T04:35:37.524Z,5
2018-12-24T04:41:00.207Z,4.5
2018-12-24T04:46:23.303Z,4.7
2018-12-24T04:51:46.182Z,4.9
2018-12-24T04:57:19.227Z,4.5
2018-12-24T05:02:51.362Z,3.9
2018-12-24T05:08:23.423Z,3.6
2018-12-24T05:13:55.419Z,2.9
2018-12-24T05:19:27.485Z,3.1
2018-12-24T05:25:00.794Z,3.4
2018-12-24T05:30:23.641Z,3.7
2018-12-24T05:35:55.586Z,4
2018-12-24T05:41:18.327Z,4.2
2018-12-24T05:46:41.066Z,4.3
2018-12-24T05:52:03.884Z,4.6
2018-12-24T05:57:36.641Z,4
2018-12-24T06:03:01.505Z,4.3
2018-12-24T06:08:33.553Z,4.6
2018-12-24T06:14:05.586Z,4.4
2018-12-24T06:19:28.241Z,4.4
2018-12-24T06:24:51.130Z,4
2018-12-24T06:30:13.945Z,4.5
2018-12-24T06:35:36.643Z,5
2018-12-24T06:41:10.259Z,4.6
2018-12-24T06:46:42.323Z,5.2
2018-12-24T06:52:15.626Z,5.2
2018-12-24T06:57:38.689Z,5.3
2018-12-24T07:03:01.631Z,5.7
2018-12-24T07:08:34.215Z,5.4
2018-12-24T07:13:56.935Z,5.2
2018-12-24T07:19:20.389Z,6.6
2018-12-24T07:24:43.245Z,5.6
2018-12-24T07:30:05.988Z,5.7
2018-12-24T07:35:28.700Z,5.6
2018-12-24T07:40:51.517Z,5.2
2018-12-24T07:46:14.236Z,5.4
2018-12-24T07:51:37.221Z,4.7
2018-12-24T07:56:59.876Z,4.4
2018-12-24T08:02:23.155Z,3.9
2018-12-24T08:07:45.938Z,3.8
2018-12-24T08:13:08.896Z,3.3
2018-12-24T08:18:31.664Z,3.6
2018-12-24T08:24:03.712Z,3.4
2018-12-24T08:29:26.405Z,3.7
2018-12-24T08:34:58.130Z,3.9
2018-12-24T08:40:20.811Z,4.1
2018-12-24T08:45:44.697Z,3.5
2018-12-24T08:51:08.121Z,3.6
2018-12-24T08:56:59.763Z,3.4
2018-12-24T09:02:23.404Z,3.9
2018-12-24T09:07:46.896Z,4.4
2018-12-24T09:13:09.684Z,4.3
2018-12-24T09:18:32.313Z,4.4
2018-12-24T09:23:55.879Z,4.5
2018-12-24T09:29:19.781Z,4.8
2018-12-24T09:34:42.566Z,4.6
2018-12-24T09:40:05.312Z,4.2
2018-12-24T09:45:37.939Z,4.6
2018-12-24T09:51:00.704Z,4.3
2018-12-24T09:56:23.363Z,4.2
2018-12-24T10:01:46.704Z,4.1
2018-12-24T10:07:09.584Z,4.3
2018-12-24T10:12:42.500Z,4.3
2018-12-24T10:18:05.313Z,4.3
2018-12-24T10:23:29.046Z,3.9
2018-12-24T10:28:51.795Z,4.2
2018-12-24T10:34:14.467Z,4
2018-12-24T10:39:37.186Z,3.9
2018-12-24T10:45:00.992Z,3.5
2018-12-24T10:50:23.670Z,3.8
2018-12-24T10:55:46.484Z,3.2
2018-12-24T11:01:09.865Z,3.4
2018-12-24T11:06:32.516Z,3.2
2018-12-24T11:11:55.304Z,3.6
2018-12-24T11:17:18.030Z,3.6
2018-12-24T11:22:40.772Z,3.6
2018-12-24T11:28:03.878Z,3.5
2018-12-24T11:33:27.271Z,3.3
2018-12-24T11:38:50.163Z,3.7
2018-12-24T11:44:13.265Z,3.7
2018-12-24T11:49:36.003Z,3.6
2018-12-24T11:54:59.914Z,3.8
2018-12-24T12:00:22.737Z,4
2018-12-24T12:05:45.570Z,3.7
2018-12-24T12:11:08.850Z,3.7
2018-12-24T12:16:31.817Z,4
2018-12-24T12:21:55.180Z,3.8
2018-12-24T12:27:17.955Z,3.6
2018-12-24T12:32:40.653Z,3.8
2018-12-24T12:38:03.334Z,3.5
2018-12-24T12:43:27.262Z,3.8
2018-12-24T12:48:50.164Z,3.6
2018-12-24T12:54:12.869Z,3.6
2018-12-24T12:59:37.235Z,3.7
2018-12-24T13:05:00.272Z,3.4
2018-12-24T13:10:23.036Z,3.1
2018-12-24T13:15:46.266Z,3.3
2018-12-24T13:21:09.156Z,3.3
2018-12-24T13:26:31.918Z,3.4
2018-12-24T13:31:54.621Z,3.2
2018-12-24T13:37:17.338Z,3.3
2018-12-24T13:42:40.186Z,3.4
2018-12-24T13:48:02.908Z,2.9
2018-12-24T13:53:25.578Z,3.1
2018-12-24T13:58:48.298Z,3.4
2018-12-24T14:04:11.043Z,3.5
2018-12-24T14:09:33.770Z,3.5
2018-12-24T14:14:56.491Z,3.5
2018-12-24T14:20:19.933Z,3.5
2018-12-24T14:25:42.669Z,3.9
2018-12-24T14:31:05.805Z,3.6
2018-12-24T14:36:28.503Z,4.3
2018-12-24T14:41:51.258Z,4.5
2018-12-24T14:47:13.936Z,4.8
2018-12-24T14:52:36.615Z,4.7
2018-12-24T14:58:00.603Z,5.1
2018-12-24T15:03:23.340Z,4.5
2018-12-24T15:08:46.014Z,4.9
2018-12-24T15:14:08.760Z,4.9
2018-12-24T15:19:31.443Z,5.2
2018-12-24T15:24:54.182Z,4.9
2018-12-24T15:30:16.861Z,5
2018-12-24T15:35:39.572Z,4.2
2018-12-24T15:41:03.141Z,5.1
2018-12-24T15:46:25.727Z,4.4
2018-12-24T15:51:48.879Z,4.4
2018-12-24T15:57:11.642Z,4.6
2018-12-24T16:02:34.414Z,4.8
2018-12-24T16:07:57.200Z,4.7
2018-12-24T16:13:19.991Z,5.5
2018-12-24T16:18:42.749Z,5.8
2018-12-24T16:24:05.462Z,5.4
2018-12-24T16:29:28.617Z,5.2
2018-12-24T16:34:51.683Z,4.6
2018-12-24T16:40:14.443Z,4.5
2018-12-24T16:45:37.313Z,5.3
2018-12-24T16:51:00.066Z,4.7
2018-12-24T16:56:22.891Z,7.7
2018-12-24T17:01:45.648Z,6.2
2018-12-24T17:07:08.363Z,6.6
2018-12-24T17:12:31.106Z,6.9
2018-12-24T17:17:53.864Z,6.6
